createdAt,value
2022-07-29T00:00:04.363Z,14.20
2022-07-29T00:02:59.029Z,14.30
2022-07-29T00:05:55.281Z,14.20
2022-07-29T00:08:50.070Z,14.10
2022-07-29T00:11:44.970Z,14.20
2022-07-29T00:14:39.611Z,14.20
2022-07-29T00:17:36.177Z,14.20
2022-07-29T00:20:31.001Z,14.20
2022-07-29T00:23:25.514Z,14.20
2022-07-29T00:26:19.998Z,14.30
2022-07-29T00:29:33.554Z,14.40
2022-07-29T00:32:28.753Z,14.40
2022-07-29T00:35:41.148Z,14.40
2022-07-29T00:38:35.623Z,14.50
2022-07-29T00:41:30.176Z,14.60
2022-07-29T00:44:28.468Z,14.60
2022-07-29T00:47:22.953Z,14.70
2022-07-29T00:50:17.845Z,14.80
2022-07-29T00:53:14.342Z,14.90
2022-07-29T00:56:09.028Z,14.90
2022-07-29T00:59:03.761Z,14.90
2022-07-29T01:01:58.441Z,15.00
2022-07-29T01:04:53.450Z,15.00
2022-07-29T01:07:49.392Z,15.10
2022-07-29T01:10:44.930Z,15.10
2022-07-29T01:13:39.720Z,15.20
2022-07-29T01:17:03.794Z,15.20
2022-07-29T01:20:13.938Z,15.30
2022-07-29T01:23:41.223Z,15.40
2022-07-29T01:26:51.000Z,15.50
2022-07-29T01:29:52.040Z,15.60
2022-07-29T01:32:52.793Z,15.80
2022-07-29T01:35:48.253Z,15.80
2022-07-29T01:38:45.519Z,15.90
2022-07-29T01:41:41.319Z,16.00
2022-07-29T01:44:50.758Z,16.00
2022-07-29T01:48:05.317Z,16.00
2022-07-29T01:51:15.042Z,16.10
2022-07-29T01:54:40.372Z,16.20
2022-07-29T01:57:37.689Z,16.40
2022-07-29T02:00:33.623Z,16.50
2022-07-29T02:03:30.349Z,16.60
2022-07-29T02:06:26.444Z,16.60
2022-07-29T02:09:23.693Z,16.70
2022-07-29T02:12:19.304Z,16.70
2022-07-29T02:15:15.891Z,16.80
2022-07-29T02:18:23.764Z,16.90
2022-07-29T02:21:25.657Z,16.90
2022-07-29T02:24:23.016Z,16.90
2022-07-29T02:27:18.701Z,17.00
2022-07-29T02:30:14.637Z,16.90
2022-07-29T02:33:11.669Z,17.00
2022-07-29T02:36:07.024Z,17.00
2022-07-29T02:39:03.035Z,17.00
2022-07-29T02:42:10.334Z,17.00
2022-07-29T02:45:04.971Z,17.00
2022-07-29T02:48:02.696Z,17.10
2022-07-29T02:51:07.658Z,17.10
2022-07-29T02:54:07.398Z,17.20
2022-07-29T02:57:11.031Z,17.20
2022-07-29T03:00:10.885Z,17.30
2022-07-29T03:03:11.865Z,17.20
2022-07-29T03:06:07.359Z,17.10
2022-07-29T03:09:02.761Z,17.10
2022-07-29T03:11:58.508Z,17.10
2022-07-29T03:14:53.588Z,17.10
2022-07-29T03:17:49.598Z,17.20
2022-07-29T03:20:44.713Z,17.30
2022-07-29T03:23:39.270Z,17.30
2022-07-29T03:26:33.841Z,17.20
2022-07-29T03:29:33.171Z,17.30
2022-07-29T03:32:28.579Z,17.30
2022-07-29T03:35:24.890Z,17.50
2022-07-29T03:38:19.413Z,17.60
2022-07-29T03:41:16.269Z,17.80
2022-07-29T03:44:19.001Z,17.80
2022-07-29T03:47:16.373Z,17.80
2022-07-29T03:50:11.371Z,17.70
2022-07-29T03:53:06.562Z,17.70
2022-07-29T03:56:04.598Z,17.70
2022-07-29T03:58:59.801Z,17.70
2022-07-29T04:01:54.707Z,17.80
2022-07-29T04:04:49.514Z,17.90
2022-07-29T04:07:47.434Z,17.90
2022-07-29T04:10:42.375Z,17.90
2022-07-29T04:13:37.046Z,17.90
2022-07-29T04:16:31.681Z,17.90
2022-07-29T04:19:26.255Z,17.90
2022-07-29T04:22:20.875Z,17.90
2022-07-29T04:25:17.490Z,17.80
2022-07-29T04:28:13.105Z,17.80
2022-07-29T04:31:07.766Z,17.80
2022-07-29T04:34:02.405Z,17.80
2022-07-29T04:36:57.354Z,17.90
2022-07-29T04:39:51.921Z,17.90
2022-07-29T04:42:47.840Z,18.00
2022-07-29T04:45:42.571Z,18.00
2022-07-29T04:48:37.372Z,18.00
2022-07-29T04:51:31.953Z,18.00
2022-07-29T04:54:26.479Z,18.10
2022-07-29T04:57:21.007Z,18.10
2022-07-29T05:00:15.938Z,18.10
2022-07-29T05:03:10.552Z,18.00
2022-07-29T05:06:05.296Z,18.00
2022-07-29T05:08:59.912Z,18.00
2022-07-29T05:11:54.494Z,18.00
2022-07-29T05:14:49.093Z,18.10
2022-07-29T05:17:43.626Z,18.10
2022-07-29T05:20:38.400Z,18.10
2022-07-29T05:23:33.278Z,18.10
2022-07-29T05:26:27.868Z,18.10
2022-07-29T05:29:42.906Z,18.10
2022-07-29T05:32:36.966Z,18.20
2022-07-29T05:35:31.539Z,18.20
2022-07-29T05:38:26.032Z,18.30
2022-07-29T05:41:23.760Z,18.40
2022-07-29T05:44:18.616Z,18.40
2022-07-29T05:47:13.772Z,18.50
2022-07-29T05:50:09.242Z,18.40
2022-07-29T05:53:20.112Z,18.50
2022-07-29T05:56:15.139Z,18.50
2022-07-29T05:59:17.328Z,18.40
2022-07-29T06:02:13.579Z,18.40
2022-07-29T06:05:08.354Z,18.40
2022-07-29T06:08:12.028Z,18.30
2022-07-29T06:11:07.238Z,18.30
2022-07-29T06:14:01.890Z,18.20
2022-07-29T06:16:56.646Z,18.20
2022-07-29T06:19:51.257Z,18.10
2022-07-29T06:22:46.172Z,18.10
2022-07-29T06:25:42.365Z,18.00
2022-07-29T06:28:36.898Z,17.90
2022-07-29T06:31:31.402Z,17.80
2022-07-29T06:34:25.933Z,17.70
2022-07-29T06:37:21.370Z,17.60
2022-07-29T06:40:34.361Z,17.50
2022-07-29T06:43:36.041Z,17.40
2022-07-29T06:46:46.011Z,17.30
2022-07-29T06:49:40.961Z,17.30
2022-07-29T06:52:35.554Z,17.20
2022-07-29T06:55:30.189Z,17.20
2022-07-29T06:58:24.854Z,17.10
2022-07-29T07:01:19.746Z,17.10
2022-07-29T07:04:15.807Z,17.10
2022-07-29T07:07:11.894Z,17.10
2022-07-29T07:10:06.855Z,17.00
2022-07-29T07:13:02.414Z,17.00
2022-07-29T07:15:57.062Z,17.00
2022-07-29T07:18:52.413Z,16.90
2022-07-29T07:21:47.001Z,16.90
2022-07-29T07:24:41.699Z,16.90
2022-07-29T07:27:36.292Z,16.90
2022-07-29T07:30:31.337Z,16.90
2022-07-29T07:33:26.864Z,16.90
2022-07-29T07:36:21.647Z,16.80
2022-07-29T07:39:16.135Z,16.70
2022-07-29T07:42:12.555Z,16.70
2022-07-29T07:45:16.343Z,16.60
2022-07-29T07:48:13.406Z,16.50
2022-07-29T07:51:09.389Z,16.30
2022-07-29T07:54:04.055Z,16.20
2022-07-29T07:56:58.631Z,16.30
2022-07-29T07:59:53.185Z,16.30
2022-07-29T08:02:47.803Z,16.40
2022-07-29T08:05:42.957Z,16.30
2022-07-29T08:08:37.534Z,16.20
2022-07-29T08:11:33.445Z,16.10
2022-07-29T08:14:33.282Z,16.00
2022-07-29T08:17:29.003Z,15.80
2022-07-29T08:20:23.605Z,15.80
2022-07-29T08:23:18.195Z,15.70
2022-07-29T08:26:12.887Z,15.60
2022-07-29T08:29:07.565Z,15.50
2022-07-29T08:32:02.215Z,15.50
2022-07-29T08:34:57.847Z,15.40
2022-07-29T08:37:52.722Z,15.40
2022-07-29T08:40:47.789Z,15.30
2022-07-29T08:43:43.956Z,15.20
2022-07-29T08:46:43.770Z,15.20
2022-07-29T08:49:38.769Z,15.10
2022-07-29T08:52:38.672Z,15.00
2022-07-29T08:55:33.378Z,15.00
2022-07-29T08:58:29.298Z,14.90
2022-07-29T09:01:36.433Z,14.90
2022-07-29T09:04:38.581Z,14.90
2022-07-29T09:07:34.763Z,14.90
2022-07-29T09:10:29.805Z,14.80
2022-07-29T09:13:24.668Z,14.70
2022-07-29T09:16:37.250Z,14.70
2022-07-29T09:19:39.019Z,14.60
2022-07-29T09:22:42.034Z,14.60
2022-07-29T09:25:41.176Z,14.60
2022-07-29T09:28:35.737Z,14.70
2022-07-29T09:31:42.031Z,14.60
2022-07-29T09:34:36.589Z,14.60
2022-07-29T09:37:32.109Z,14.50
2022-07-29T09:40:30.349Z,14.50
2022-07-29T09:43:24.941Z,14.40
2022-07-29T09:46:19.570Z,14.40
2022-07-29T09:49:16.948Z,14.40
2022-07-29T09:52:11.542Z,14.40
2022-07-29T09:55:17.900Z,14.30
2022-07-29T09:58:24.733Z,14.30
2022-07-29T10:01:30.072Z,14.30
2022-07-29T10:04:24.724Z,14.20
2022-07-29T10:07:19.242Z,14.20
2022-07-29T10:10:21.152Z,14.10
2022-07-29T10:13:16.806Z,14.10
2022-07-29T10:16:12.175Z,14.10
2022-07-29T10:19:07.998Z,14.10
2022-07-29T10:22:04.635Z,14.00
2022-07-29T10:24:59.479Z,14.00
2022-07-29T10:27:55.406Z,14.00
2022-07-29T10:30:53.956Z,14.00
2022-07-29T10:34:16.729Z,13.90
2022-07-29T10:37:45.868Z,13.90
2022-07-29T10:41:09.844Z,13.90
2022-07-29T10:44:08.126Z,13.90
2022-07-29T10:47:03.159Z,13.90
2022-07-29T10:50:02.342Z,14.00
2022-07-29T10:52:59.703Z,13.90
2022-07-29T10:55:55.694Z,13.80
2022-07-29T10:59:22.778Z,13.80
2022-07-29T11:02:42.647Z,13.80
2022-07-29T11:06:08.671Z,13.80
2022-07-29T11:12:42.373Z,13.70
2022-07-29T11:16:00.201Z,13.80
2022-07-29T11:19:26.308Z,13.70
2022-07-29T11:22:42.983Z,13.80
2022-07-29T11:25:42.927Z,13.80
2022-07-29T11:28:54.374Z,13.80
2022-07-29T11:31:56.288Z,13.70
2022-07-29T11:34:52.786Z,13.70
2022-07-29T11:37:57.634Z,13.70
2022-07-29T11:41:31.837Z,13.70
2022-07-29T11:45:08.957Z,13.70
2022-07-29T11:51:36.454Z,13.70
2022-07-29T11:54:57.364Z,13.70
2022-07-29T11:58:03.816Z,13.70
2022-07-29T12:01:05.072Z,13.70
2022-07-29T12:04:15.058Z,13.80
2022-07-29T12:07:03.361Z,13.70
2022-07-29T12:07:09.689Z,13.80
2022-07-29T12:10:11.427Z,13.70
2022-07-29T12:13:15.025Z,13.70
2022-07-29T12:16:09.730Z,13.70
2022-07-29T12:19:09.354Z,13.70
2022-07-29T12:22:06.081Z,13.70
2022-07-29T12:25:31.965Z,13.70
2022-07-29T12:28:26.570Z,13.70
2022-07-29T12:31:42.783Z,13.70
2022-07-29T12:34:37.461Z,13.80
2022-07-29T12:37:40.559Z,13.80
2022-07-29T12:40:36.499Z,13.80
2022-07-29T12:43:31.113Z,13.70
2022-07-29T12:46:25.849Z,13.80
2022-07-29T12:49:26.583Z,13.80
2022-07-29T12:52:48.015Z,13.80
2022-07-29T12:55:53.908Z,13.90
2022-07-29T12:58:51.392Z,13.80
2022-07-29T13:01:49.624Z,13.80
2022-07-29T13:04:44.326Z,13.80
2022-07-29T13:07:55.033Z,13.70
2022-07-29T13:10:51.742Z,13.70
2022-07-29T13:14:05.672Z,13.70
2022-07-29T13:17:32.736Z,13.60
2022-07-29T13:20:32.318Z,13.60
2022-07-29T13:23:27.096Z,13.70
2022-07-29T13:26:21.974Z,13.70
2022-07-29T13:29:16.706Z,13.70
2022-07-29T13:32:11.864Z,13.70
2022-07-29T13:35:09.970Z,13.60
2022-07-29T13:38:05.228Z,13.60
2022-07-29T13:41:00.294Z,13.60
2022-07-29T13:43:54.953Z,13.60
2022-07-29T13:46:49.666Z,13.60
2022-07-29T13:49:44.178Z,13.60
2022-07-29T13:52:39.789Z,13.60
2022-07-29T13:55:34.338Z,13.60
2022-07-29T13:58:29.054Z,13.60
2022-07-29T14:01:23.747Z,13.60
2022-07-29T14:04:18.436Z,13.60
2022-07-29T14:07:16.368Z,13.60
2022-07-29T14:10:11.804Z,13.60
2022-07-29T14:13:06.361Z,13.60
2022-07-29T14:16:20.395Z,13.70
2022-07-29T14:19:15.126Z,13.70
2022-07-29T14:22:11.227Z,13.70
2022-07-29T14:25:14.214Z,13.60
2022-07-29T14:28:09.333Z,13.60
2022-07-29T14:31:03.854Z,13.60
2022-07-29T14:34:02.490Z,13.60
2022-07-29T14:36:57.709Z,13.60
2022-07-29T14:39:52.576Z,13.60
2022-07-29T14:42:47.140Z,13.60
2022-07-29T14:45:42.024Z,13.60
2022-07-29T14:48:37.342Z,13.70
2022-07-29T14:51:32.861Z,13.60
2022-07-29T14:54:27.431Z,13.60
2022-07-29T14:57:22.193Z,13.60
2022-07-29T15:00:17.350Z,13.60
2022-07-29T15:03:12.644Z,13.60
2022-07-29T15:06:17.575Z,13.60
2022-07-29T15:09:12.255Z,13.60
2022-07-29T15:12:07.947Z,13.60
2022-07-29T15:15:02.779Z,13.60
2022-07-29T15:17:58.114Z,13.70
2022-07-29T15:20:52.613Z,13.60
2022-07-29T15:23:48.606Z,13.60
2022-07-29T15:26:44.590Z,13.60
2022-07-29T15:29:40.181Z,13.70
2022-07-29T15:32:34.883Z,13.70
2022-07-29T15:35:29.481Z,13.60
2022-07-29T15:38:28.854Z,13.70
2022-07-29T15:41:24.134Z,13.60
2022-07-29T15:44:18.758Z,13.60
2022-07-29T15:47:13.315Z,13.60
2022-07-29T15:50:15.690Z,13.60
2022-07-29T15:53:10.187Z,13.60
2022-07-29T15:56:05.962Z,13.60
2022-07-29T15:59:01.198Z,13.60
2022-07-29T16:01:55.776Z,13.60
2022-07-29T16:04:50.421Z,13.70
2022-07-29T16:07:44.942Z,13.60
2022-07-29T16:10:41.685Z,13.60
2022-07-29T16:13:36.269Z,13.60
2022-07-29T16:16:31.105Z,13.70
2022-07-29T16:19:25.877Z,13.70
2022-07-29T16:22:20.348Z,13.70
2022-07-29T16:25:14.818Z,13.70
2022-07-29T16:28:09.859Z,13.70
2022-07-29T16:31:04.619Z,13.70
2022-07-29T16:33:59.245Z,13.70
2022-07-29T16:36:53.833Z,13.70
2022-07-29T16:39:48.294Z,13.70
2022-07-29T16:42:47.272Z,13.70
2022-07-29T16:45:46.269Z,13.70
2022-07-29T16:48:41.262Z,13.60
2022-07-29T16:51:35.896Z,13.60
2022-07-29T16:54:30.433Z,13.60
2022-07-29T16:57:24.893Z,13.60
2022-07-29T17:00:21.264Z,13.60
2022-07-29T17:03:15.737Z,13.60
2022-07-29T17:06:10.269Z,13.60
2022-07-29T17:09:07.232Z,13.70
2022-07-29T17:12:01.728Z,13.70
2022-07-29T17:14:56.165Z,13.70
2022-07-29T17:17:55.127Z,13.70
2022-07-29T17:20:51.319Z,13.70
2022-07-29T17:23:45.911Z,13.70
2022-07-29T17:26:45.530Z,13.80
2022-07-29T17:29:40.961Z,13.70
2022-07-29T17:32:40.702Z,13.70
2022-07-29T17:35:53.114Z,13.80
2022-07-29T17:38:47.674Z,13.80
2022-07-29T17:41:42.321Z,13.80
2022-07-29T17:44:36.820Z,13.80
2022-07-29T17:47:31.336Z,13.80
2022-07-29T17:50:25.890Z,13.80
2022-07-29T17:53:20.468Z,13.80
2022-07-29T17:56:15.329Z,13.80
2022-07-29T17:59:11.532Z,13.80
2022-07-29T18:02:06.074Z,13.90
2022-07-29T18:05:00.637Z,13.90
2022-07-29T18:07:57.043Z,13.80
2022-07-29T18:10:52.018Z,13.80
2022-07-29T18:13:47.561Z,13.90
2022-07-29T18:16:42.313Z,13.90
2022-07-29T18:19:36.949Z,13.90
2022-07-29T18:22:31.516Z,13.90
2022-07-29T18:25:26.944Z,13.90
2022-07-29T18:28:21.991Z,13.90
2022-07-29T18:31:16.495Z,13.90
2022-07-29T18:34:11.085Z,13.80
2022-07-29T18:37:05.644Z,13.70
2022-07-29T18:40:00.150Z,13.80
2022-07-29T18:42:55.258Z,13.70
2022-07-29T18:45:51.054Z,13.80
2022-07-29T18:48:45.938Z,13.80
2022-07-29T18:51:40.773Z,13.80
2022-07-29T18:54:35.277Z,13.70
2022-07-29T18:57:55.109Z,13.80
2022-07-29T19:00:45.042Z,13.80
2022-07-29T19:03:39.713Z,13.80
2022-07-29T19:06:34.319Z,13.80
2022-07-29T19:09:28.838Z,13.80
2022-07-29T19:12:23.314Z,13.70
2022-07-29T19:15:19.913Z,13.80
2022-07-29T19:18:14.915Z,13.70
2022-07-29T19:21:10.366Z,13.70
2022-07-29T19:24:08.501Z,13.70
2022-07-29T19:27:05.772Z,13.70
2022-07-29T19:30:00.288Z,13.70
2022-07-29T19:32:54.854Z,13.70
2022-07-29T19:35:54.321Z,13.70
2022-07-29T19:38:49.345Z,13.70
2022-07-29T19:41:43.847Z,13.80
2022-07-29T19:44:38.330Z,13.80
2022-07-29T19:47:32.798Z,13.80
2022-07-29T19:50:27.897Z,13.80
2022-07-29T19:53:22.417Z,13.80
2022-07-29T19:56:16.964Z,13.80
2022-07-29T19:59:12.015Z,13.80
2022-07-29T20:02:09.151Z,13.80
2022-07-29T20:05:03.872Z,13.80
2022-07-29T20:07:59.753Z,13.80
2022-07-29T20:10:55.879Z,13.70
2022-07-29T20:13:50.373Z,13.70
2022-07-29T20:16:45.404Z,13.70
2022-07-29T20:19:39.894Z,13.70
2022-07-29T20:22:34.364Z,13.70
2022-07-29T20:25:28.921Z,13.70
2022-07-29T20:28:23.382Z,13.70
2022-07-29T20:31:18.085Z,13.70
2022-07-29T20:34:12.888Z,13.70
2022-07-29T20:37:07.414Z,13.70
2022-07-29T20:40:01.881Z,13.70
2022-07-29T20:42:57.402Z,13.70
2022-07-29T20:45:51.950Z,13.70
2022-07-29T20:48:48.305Z,13.70
2022-07-29T20:51:43.684Z,13.70
2022-07-29T20:54:38.667Z,13.70
2022-07-29T20:57:38.711Z,13.70
2022-07-29T21:00:34.281Z,13.70
2022-07-29T21:03:28.963Z,13.70
2022-07-29T21:06:24.533Z,13.70
2022-07-29T21:09:18.980Z,13.70
2022-07-29T21:12:15.900Z,13.70
2022-07-29T21:15:14.512Z,13.70
2022-07-29T21:18:17.585Z,13.70
2022-07-29T21:21:12.081Z,13.70
2022-07-29T21:24:08.741Z,13.60
2022-07-29T21:27:25.352Z,13.60
2022-07-29T21:30:20.080Z,13.60
2022-07-29T21:33:14.646Z,13.50
2022-07-29T21:36:46.785Z,13.50
2022-07-29T21:39:24.553Z,13.50
2022-07-29T21:42:19.367Z,13.50
2022-07-29T21:45:16.843Z,13.50
2022-07-29T21:48:11.549Z,13.50
2022-07-29T21:51:06.733Z,13.60
2022-07-29T21:54:01.472Z,13.60
2022-07-29T21:56:56.114Z,13.60
2022-07-29T21:59:52.330Z,13.60
2022-07-29T22:02:47.177Z,13.50
2022-07-29T22:05:41.797Z,13.60
2022-07-29T22:08:36.273Z,13.60
2022-07-29T22:11:30.853Z,13.60
2022-07-29T22:14:26.385Z,13.60
2022-07-29T22:17:24.828Z,13.70
2022-07-29T22:20:19.388Z,13.70
2022-07-29T22:23:13.922Z,13.70
2022-07-29T22:26:08.440Z,13.80
2022-07-29T22:29:02.975Z,13.90
2022-07-29T22:31:57.497Z,13.90
2022-07-29T22:34:52.185Z,13.90
2022-07-29T22:37:46.664Z,14.00
2022-07-29T22:40:41.354Z,14.00
2022-07-29T22:43:35.840Z,14.10
2022-07-29T22:46:30.491Z,14.10
2022-07-29T22:49:25.059Z,14.10
2022-07-29T22:52:19.637Z,14.20
2022-07-29T22:55:14.545Z,14.20
2022-07-29T22:58:09.355Z,14.20
2022-07-29T23:01:03.941Z,14.30
2022-07-29T23:03:58.686Z,14.30
2022-07-29T23:06:53.541Z,14.30
2022-07-29T23:09:48.072Z,14.40
2022-07-29T23:12:42.550Z,14.40
2022-07-29T23:15:38.045Z,14.40
2022-07-29T23:18:32.565Z,14.40
2022-07-29T23:21:27.509Z,14.50
2022-07-29T23:24:21.992Z,14.50
2022-07-29T23:27:16.514Z,14.60
2022-07-29T23:30:11.804Z,14.60
2022-07-29T23:33:06.359Z,14.70
2022-07-29T23:36:00.811Z,14.70
2022-07-29T23:38:56.529Z,14.70
2022-07-29T23:41:50.993Z,14.80
2022-07-29T23:44:45.605Z,14.80
2022-07-29T23:47:40.346Z,14.80
2022-07-29T23:50:34.886Z,14.90
2022-07-29T23:53:30.009Z,14.90
2022-07-29T23:56:24.981Z,14.90
2022-07-29T23:59:19.535Z,15.00
